sensor_id;sensor_type;location;lat;lon;timestamp;temperature;humidity
10344;DHT22;5217;43.960;10.954;2023-05-23T00:00:38;21.10;99.90
10344;DHT22;5217;43.960;10.954;2023-05-23T00:03:07;21.10;99.90
10344;DHT22;5217;43.960;10.954;2023-05-23T00:05:37;21.10;99.90
10344;DHT22;5217;43.960;10.954;2023-05-23T00:08:05;21.10;99.90
10344;DHT22;5217;43.960;10.954;2023-05-23T00:10:36;21.10;99.90
10344;DHT22;5217;43.960;10.954;2023-05-23T00:13:05;21.10;99.90
10344;DHT22;5217;43.960;10.954;2023-05-23T00:15:35;21.10;99.90
10344;DHT22;5217;43.960;10.954;2023-05-23T00:18:04;21.00;99.90
10344;DHT22;5217;43.960;10.954;2023-05-23T00:20:35;21.00;99.90
10344;DHT22;5217;43.960;10.954;2023-05-23T00:23:07;21.00;99.90
10344;DHT22;5217;43.960;10.954;2023-05-23T00:25:37;21.00;99.90
10344;DHT22;5217;43.960;10.954;2023-05-23T00:28:07;21.00;99.90
10344;DHT22;5217;43.960;10.954;2023-05-23T00:30:35;21.00;99.90
10344;DHT22;5217;43.960;10.954;2023-05-23T00:33:04;21.00;99.90
10344;DHT22;5217;43.960;10.954;2023-05-23T00:35:33;21.00;99.90
10344;DHT22;5217;43.960;10.954;2023-05-23T00:38:01;20.90;99.90
10344;DHT22;5217;43.960;10.954;2023-05-23T00:40:30;20.90;99.90
10344;DHT22;5217;43.960;10.954;2023-05-23T00:43:00;20.90;99.90
10344;DHT22;5217;43.960;10.954;2023-05-23T00:45:28;20.90;99.90
10344;DHT22;5217;43.960;10.954;2023-05-23T00:47:57;20.90;99.90
10344;DHT22;5217;43.960;10.954;2023-05-23T00:50:27;20.90;99.90
10344;DHT22;5217;43.960;10.954;2023-05-23T00:52:57;20.90;99.90
10344;DHT22;5217;43.960;10.954;2023-05-23T00:55:26;20.80;99.90
10344;DHT22;5217;43.960;10.954;2023-05-23T00:57:55;20.80;99.90
10344;DHT22;5217;43.960;10.954;2023-05-23T01:00:26;20.80;99.90
10344;DHT22;5217;43.960;10.954;2023-05-23T01:02:56;20.80;99.90
10344;DHT22;5217;43.960;10.954;2023-05-23T01:05:25;20.80;99.90
10344;DHT22;5217;43.960;10.954;2023-05-23T01:07:53;20.80;99.90
10344;DHT22;5217;43.960;10.954;2023-05-23T01:10:24;20.70;99.90
10344;DHT22;5217;43.960;10.954;2023-05-23T01:13:00;20.70;99.90
10344;DHT22;5217;43.960;10.954;2023-05-23T01:15:39;20.70;99.90
10344;DHT22;5217;43.960;10.954;2023-05-23T01:18:14;20.70;99.90
10344;DHT22;5217;43.960;10.954;2023-05-23T01:20:53;20.70;99.90
10344;DHT22;5217;43.960;10.954;2023-05-23T01:23:49;20.70;99.90
10344;DHT22;5217;43.960;10.954;2023-05-23T01:26:31;20.70;99.90
10344;DHT22;5217;43.960;10.954;2023-05-23T01:29:06;20.70;99.90
10344;DHT22;5217;43.960;10.954;2023-05-23T01:31:40;20.70;99.90
10344;DHT22;5217;43.960;10.954;2023-05-23T01:34:11;20.60;99.90
10344;DHT22;5217;43.960;10.954;2023-05-23T01:36:42;20.70;99.90
10344;DHT22;5217;43.960;10.954;2023-05-23T01:39:11;20.60;99.90
10344;DHT22;5217;43.960;10.954;2023-05-23T01:41:39;20.60;99.90
10344;DHT22;5217;43.960;10.954;2023-05-23T01:44:09;20.60;99.90
10344;DHT22;5217;43.960;10.954;2023-05-23T01:46:38;20.60;99.90
10344;DHT22;5217;43.960;10.954;2023-05-23T01:49:09;20.60;99.90
10344;DHT22;5217;43.960;10.954;2023-05-23T01:51:39;20.60;99.90
10344;DHT22;5217;43.960;10.954;2023-05-23T01:54:08;20.50;99.90
10344;DHT22;5217;43.960;10.954;2023-05-23T01:56:37;20.60;99.90
10344;DHT22;5217;43.960;10.954;2023-05-23T01:59:05;20.50;99.90
10344;DHT22;5217;43.960;10.954;2023-05-23T02:01:35;20.50;99.90
10344;DHT22;5217;43.960;10.954;2023-05-23T02:04:04;20.50;99.90
10344;DHT22;5217;43.960;10.954;2023-05-23T02:06:33;20.50;99.90
10344;DHT22;5217;43.960;10.954;2023-05-23T02:09:01;20.50;99.90
10344;DHT22;5217;43.960;10.954;2023-05-23T02:11:30;20.50;99.90
10344;DHT22;5217;43.960;10.954;2023-05-23T02:13:58;20.50;99.90
10344;DHT22;5217;43.960;10.954;2023-05-23T02:16:28;20.50;99.90
10344;DHT22;5217;43.960;10.954;2023-05-23T02:19:01;20.40;99.90
10344;DHT22;5217;43.960;10.954;2023-05-23T02:21:30;20.50;99.90
10344;DHT22;5217;43.960;10.954;2023-05-23T02:24:01;20.40;99.90
10344;DHT22;5217;43.960;10.954;2023-05-23T02:26:32;20.40;99.90
10344;DHT22;5217;43.960;10.954;2023-05-23T02:29:01;20.40;99.90
10344;DHT22;5217;43.960;10.954;2023-05-23T02:31:30;20.40;99.90
10344;DHT22;5217;43.960;10.954;2023-05-23T02:34:00;20.30;99.90
10344;DHT22;5217;43.960;10.954;2023-05-23T02:36:30;20.30;99.90
10344;DHT22;5217;43.960;10.954;2023-05-23T02:38:59;20.40;99.90
10344;DHT22;5217;43.960;10.954;2023-05-23T02:41:27;20.30;99.90
10344;DHT22;5217;43.960;10.954;2023-05-23T02:43:56;20.30;99.90
10344;DHT22;5217;43.960;10.954;2023-05-23T02:46:24;20.30;99.90
10344;DHT22;5217;43.960;10.954;2023-05-23T02:48:53;20.30;99.90
10344;DHT22;5217;43.960;10.954;2023-05-23T02:51:23;20.30;99.90
10344;DHT22;5217;43.960;10.954;2023-05-23T02:53:52;20.30;99.90
10344;DHT22;5217;43.960;10.954;2023-05-23T02:56:20;20.20;99.90
10344;DHT22;5217;43.960;10.954;2023-05-23T02:58:49;20.20;99.90
10344;DHT22;5217;43.960;10.954;2023-05-23T03:01:18;20.30;99.90
10344;DHT22;5217;43.960;10.954;2023-05-23T03:03:47;20.20;99.90
10344;DHT22;5217;43.960;10.954;2023-05-23T03:06:15;20.20;99.90
10344;DHT22;5217;43.960;10.954;2023-05-23T03:08:45;20.20;99.90
10344;DHT22;5217;43.960;10.954;2023-05-23T03:11:14;20.20;99.90
10344;DHT22;5217;43.960;10.954;2023-05-23T03:13:42;20.20;99.90
10344;DHT22;5217;43.960;10.954;2023-05-23T03:16:11;20.20;99.90
10344;DHT22;5217;43.960;10.954;2023-05-23T03:18:39;20.20;99.90
10344;DHT22;5217;43.960;10.954;2023-05-23T03:21:08;20.10;99.90
10344;DHT22;5217;43.960;10.954;2023-05-23T03:23:37;20.10;99.90
10344;DHT22;5217;43.960;10.954;2023-05-23T03:26:07;20.10;99.90
10344;DHT22;5217;43.960;10.954;2023-05-23T03:28:35;20.10;99.90
10344;DHT22;5217;43.960;10.954;2023-05-23T03:31:04;20.10;99.90
10344;DHT22;5217;43.960;10.954;2023-05-23T03:33:32;20.10;99.90
10344;DHT22;5217;43.960;10.954;2023-05-23T03:36:03;20.00;99.90
10344;DHT22;5217;43.960;10.954;2023-05-23T03:38:31;20.00;99.90
10344;DHT22;5217;43.960;10.954;2023-05-23T03:41:00;20.00;99.90
10344;DHT22;5217;43.960;10.954;2023-05-23T03:43:30;20.00;99.90
10344;DHT22;5217;43.960;10.954;2023-05-23T03:45:59;20.00;99.90
10344;DHT22;5217;43.960;10.954;2023-05-23T03:48:27;20.00;99.90
10344;DHT22;5217;43.960;10.954;2023-05-23T03:50:56;20.00;99.90
10344;DHT22;5217;43.960;10.954;2023-05-23T03:53:25;19.90;99.90
10344;DHT22;5217;43.960;10.954;2023-05-23T03:55:53;20.00;99.90
10344;DHT22;5217;43.960;10.954;2023-05-23T03:58:21;19.90;99.90
10344;DHT22;5217;43.960;10.954;2023-05-23T04:00:51;19.90;99.90
10344;DHT22;5217;43.960;10.954;2023-05-23T04:03:20;19.90;99.90
10344;DHT22;5217;43.960;10.954;2023-05-23T04:05:49;19.90;99.90
10344;DHT22;5217;43.960;10.954;2023-05-23T04:08:18;19.90;99.90
10344;DHT22;5217;43.960;10.954;2023-05-23T04:10:48;19.90;99.90
10344;DHT22;5217;43.960;10.954;2023-05-23T04:13:16;19.90;99.90
10344;DHT22;5217;43.960;10.954;2023-05-23T04:15:46;19.90;99.90
10344;DHT22;5217;43.960;10.954;2023-05-23T04:18:16;19.90;99.90
10344;DHT22;5217;43.960;10.954;2023-05-23T04:20:45;19.90;99.90
10344;DHT22;5217;43.960;10.954;2023-05-23T04:23:14;19.90;99.90
10344;DHT22;5217;43.960;10.954;2023-05-23T04:25:42;19.80;99.90
10344;DHT22;5217;43.960;10.954;2023-05-23T04:28:11;19.80;99.90
10344;DHT22;5217;43.960;10.954;2023-05-23T04:30:40;19.90;99.90
10344;DHT22;5217;43.960;10.954;2023-05-23T04:33:08;19.80;99.90
10344;DHT22;5217;43.960;10.954;2023-05-23T04:35:39;19.80;99.90
10344;DHT22;5217;43.960;10.954;2023-05-23T04:38:08;19.80;99.90
10344;DHT22;5217;43.960;10.954;2023-05-23T04:40:37;19.80;99.90
10344;DHT22;5217;43.960;10.954;2023-05-23T04:43:06;19.80;99.90
10344;DHT22;5217;43.960;10.954;2023-05-23T04:45:36;19.80;99.90
10344;DHT22;5217;43.960;10.954;2023-05-23T04:48:05;19.80;99.90
10344;DHT22;5217;43.960;10.954;2023-05-23T04:50:34;19.80;99.90
10344;DHT22;5217;43.960;10.954;2023-05-23T04:53:05;19.80;99.90
10344;DHT22;5217;43.960;10.954;2023-05-23T04:55:34;19.80;99.90
10344;DHT22;5217;43.960;10.954;2023-05-23T04:58:03;19.80;99.90
10344;DHT22;5217;43.960;10.954;2023-05-23T05:00:32;19.80;99.90
10344;DHT22;5217;43.960;10.954;2023-05-23T05:03:02;19.80;99.90
10344;DHT22;5217;43.960;10.954;2023-05-23T05:05:30;19.80;99.90
10344;DHT22;5217;43.960;10.954;2023-05-23T05:07:59;19.80;99.90
10344;DHT22;5217;43.960;10.954;2023-05-23T05:10:29;19.80;99.90
10344;DHT22;5217;43.960;10.954;2023-05-23T05:12:57;19.80;99.90
10344;DHT22;5217;43.960;10.954;2023-05-23T05:15:26;19.80;99.90
10344;DHT22;5217;43.960;10.954;2023-05-23T05:17:54;19.80;99.90
10344;DHT22;5217;43.960;10.954;2023-05-23T05:20:23;19.80;99.90
10344;DHT22;5217;43.960;10.954;2023-05-23T05:22:54;19.80;99.90
10344;DHT22;5217;43.960;10.954;2023-05-23T05:25:23;19.80;99.90
10344;DHT22;5217;43.960;10.954;2023-05-23T05:27:54;19.80;99.90
10344;DHT22;5217;43.960;10.954;2023-05-23T05:30:23;19.80;99.90
10344;DHT22;5217;43.960;10.954;2023-05-23T05:32:52;19.80;99.90
10344;DHT22;5217;43.960;10.954;2023-05-23T05:35:20;19.80;99.90
10344;DHT22;5217;43.960;10.954;2023-05-23T05:37:49;19.80;99.90
10344;DHT22;5217;43.960;10.954;2023-05-23T05:40:18;19.80;99.90
10344;DHT22;5217;43.960;10.954;2023-05-23T05:42:46;19.70;99.90
10344;DHT22;5217;43.960;10.954;2023-05-23T05:45:16;19.70;99.90
10344;DHT22;5217;43.960;10.954;2023-05-23T05:47:45;19.70;99.90
10344;DHT22;5217;43.960;10.954;2023-05-23T05:50:14;19.70;99.90
10344;DHT22;5217;43.960;10.954;2023-05-23T05:52:42;19.70;99.90
10344;DHT22;5217;43.960;10.954;2023-05-23T05:55:11;19.70;99.90
10344;DHT22;5217;43.960;10.954;2023-05-23T05:57:40;19.80;99.90
10344;DHT22;5217;43.960;10.954;2023-05-23T06:00:11;19.80;99.90
10344;DHT22;5217;43.960;10.954;2023-05-23T06:02:42;19.80;99.90
10344;DHT22;5217;43.960;10.954;2023-05-23T06:05:14;19.80;99.90
10344;DHT22;5217;43.960;10.954;2023-05-23T06:07:43;19.80;99.90
10344;DHT22;5217;43.960;10.954;2023-05-23T06:10:11;19.80;99.90
10344;DHT22;5217;43.960;10.954;2023-05-23T06:12:40;19.80;99.90
10344;DHT22;5217;43.960;10.954;2023-05-23T06:15:09;19.90;99.90
10344;DHT22;5217;43.960;10.954;2023-05-23T06:17:39;19.80;99.90
10344;DHT22;5217;43.960;10.954;2023-05-23T06:20:10;19.90;99.90
10344;DHT22;5217;43.960;10.954;2023-05-23T06:22:39;19.80;99.90
10344;DHT22;5217;43.960;10.954;2023-05-23T06:25:08;19.80;99.90
10344;DHT22;5217;43.960;10.954;2023-05-23T06:27:36;19.90;99.90
10344;DHT22;5217;43.960;10.954;2023-05-23T06:30:06;19.90;99.90
10344;DHT22;5217;43.960;10.954;2023-05-23T06:32:34;19.90;99.90
10344;DHT22;5217;43.960;10.954;2023-05-23T06:35:05;19.90;99.90
10344;DHT22;5217;43.960;10.954;2023-05-23T06:37:35;20.00;99.90
10344;DHT22;5217;43.960;10.954;2023-05-23T06:40:04;20.00;99.90
10344;DHT22;5217;43.960;10.954;2023-05-23T06:42:33;20.00;99.90
10344;DHT22;5217;43.960;10.954;2023-05-23T06:45:02;20.00;99.90
10344;DHT22;5217;43.960;10.954;2023-05-23T06:47:31;20.00;99.90
10344;DHT22;5217;43.960;10.954;2023-05-23T06:50:00;20.00;99.90
10344;DHT22;5217;43.960;10.954;2023-05-23T06:52:30;20.00;99.90
10344;DHT22;5217;43.960;10.954;2023-05-23T06:55:00;20.00;99.90
10344;DHT22;5217;43.960;10.954;2023-05-23T06:57:28;20.00;99.90
10344;DHT22;5217;43.960;10.954;2023-05-23T06:59:57;20.10;99.90
10344;DHT22;5217;43.960;10.954;2023-05-23T07:02:26;20.10;99.90
10344;DHT22;5217;43.960;10.954;2023-05-23T07:04:54;20.10;99.90
10344;DHT22;5217;43.960;10.954;2023-05-23T07:07:23;20.20;99.90
10344;DHT22;5217;43.960;10.954;2023-05-23T07:09:52;20.10;99.90
10344;DHT22;5217;43.960;10.954;2023-05-23T07:12:22;20.20;99.90
10344;DHT22;5217;43.960;10.954;2023-05-23T07:14:51;20.20;99.90
10344;DHT22;5217;43.960;10.954;2023-05-23T07:17:20;20.20;99.90
10344;DHT22;5217;43.960;10.954;2023-05-23T07:19:49;20.20;99.90
10344;DHT22;5217;43.960;10.954;2023-05-23T07:22:17;20.20;99.90
10344;DHT22;5217;43.960;10.954;2023-05-23T07:24:46;20.20;99.90
10344;DHT22;5217;43.960;10.954;2023-05-23T07:27:14;20.20;99.90
10344;DHT22;5217;43.960;10.954;2023-05-23T07:29:44;20.30;99.90
10344;DHT22;5217;43.960;10.954;2023-05-23T07:32:13;20.30;99.90
10344;DHT22;5217;43.960;10.954;2023-05-23T07:34:41;20.30;99.90
10344;DHT22;5217;43.960;10.954;2023-05-23T07:37:10;20.30;99.90
10344;DHT22;5217;43.960;10.954;2023-05-23T07:39:38;20.30;99.90
10344;DHT22;5217;43.960;10.954;2023-05-23T07:42:07;20.40;99.90
10344;DHT22;5217;43.960;10.954;2023-05-23T07:44:35;20.40;99.90
10344;DHT22;5217;43.960;10.954;2023-05-23T07:47:06;20.40;99.90
10344;DHT22;5217;43.960;10.954;2023-05-23T07:49:35;20.40;99.90
10344;DHT22;5217;43.960;10.954;2023-05-23T07:52:03;20.40;99.90
10344;DHT22;5217;43.960;10.954;2023-05-23T07:54:32;20.50;99.90
10344;DHT22;5217;43.960;10.954;2023-05-23T07:57:01;20.50;99.90
10344;DHT22;5217;43.960;10.954;2023-05-23T07:59:30;20.50;99.90
10344;DHT22;5217;43.960;10.954;2023-05-23T08:01:58;20.40;99.90
10344;DHT22;5217;43.960;10.954;2023-05-23T08:04:28;20.50;99.90
10344;DHT22;5217;43.960;10.954;2023-05-23T08:06:58;20.50;99.90
10344;DHT22;5217;43.960;10.954;2023-05-23T08:09:32;20.50;99.90
10344;DHT22;5217;43.960;10.954;2023-05-23T08:12:00;20.60;99.90
10344;DHT22;5217;43.960;10.954;2023-05-23T08:14:30;20.50;99.90
10344;DHT22;5217;43.960;10.954;2023-05-23T08:17:16;20.60;99.90
10344;DHT22;5217;43.960;10.954;2023-05-23T08:19:46;20.60;99.90
10344;DHT22;5217;43.960;10.954;2023-05-23T08:22:14;20.60;99.90
10344;DHT22;5217;43.960;10.954;2023-05-23T08:24:43;20.60;99.90
10344;DHT22;5217;43.960;10.954;2023-05-23T08:27:12;20.70;99.90
10344;DHT22;5217;43.960;10.954;2023-05-23T08:29:40;20.70;99.90
10344;DHT22;5217;43.960;10.954;2023-05-23T08:32:10;20.70;99.90
10344;DHT22;5217;43.960;10.954;2023-05-23T08:34:39;20.70;99.90
10344;DHT22;5217;43.960;10.954;2023-05-23T08:37:09;20.70;99.90
10344;DHT22;5217;43.960;10.954;2023-05-23T08:39:38;20.80;99.90
10344;DHT22;5217;43.960;10.954;2023-05-23T08:42:07;20.80;99.90
10344;DHT22;5217;43.960;10.954;2023-05-23T08:44:36;20.80;99.90
10344;DHT22;5217;43.960;10.954;2023-05-23T08:47:07;20.80;99.90
10344;DHT22;5217;43.960;10.954;2023-05-23T08:49:37;20.80;99.90
10344;DHT22;5217;43.960;10.954;2023-05-23T08:52:12;20.80;99.90
10344;DHT22;5217;43.960;10.954;2023-05-23T08:54:41;20.80;99.90
10344;DHT22;5217;43.960;10.954;2023-05-23T08:57:11;20.90;99.90
10344;DHT22;5217;43.960;10.954;2023-05-23T08:59:40;20.90;99.90
10344;DHT22;5217;43.960;10.954;2023-05-23T09:02:10;20.90;99.90
10344;DHT22;5217;43.960;10.954;2023-05-23T09:04:39;20.90;99.90
10344;DHT22;5217;43.960;10.954;2023-05-23T09:07:09;20.90;99.90
10344;DHT22;5217;43.960;10.954;2023-05-23T09:09:40;21.00;99.90
10344;DHT22;5217;43.960;10.954;2023-05-23T09:12:09;21.00;99.90
10344;DHT22;5217;43.960;10.954;2023-05-23T09:14:39;21.00;99.90
10344;DHT22;5217;43.960;10.954;2023-05-23T09:17:08;21.00;99.90
10344;DHT22;5217;43.960;10.954;2023-05-23T09:19:40;21.00;99.90
10344;DHT22;5217;43.960;10.954;2023-05-23T09:22:09;21.00;99.90
10344;DHT22;5217;43.960;10.954;2023-05-23T09:24:37;21.00;99.90
10344;DHT22;5217;43.960;10.954;2023-05-23T09:27:08;21.10;99.90
10344;DHT22;5217;43.960;10.954;2023-05-23T09:29:37;21.10;99.90
10344;DHT22;5217;43.960;10.954;2023-05-23T09:32:14;21.10;99.90
10344;DHT22;5217;43.960;10.954;2023-05-23T09:34:54;21.10;99.90
10344;DHT22;5217;43.960;10.954;2023-05-23T09:37:28;21.10;99.90
10344;DHT22;5217;43.960;10.954;2023-05-23T09:39:59;21.10;99.90
10344;DHT22;5217;43.960;10.954;2023-05-23T09:42:32;21.20;99.90
10344;DHT22;5217;43.960;10.954;2023-05-23T09:45:01;21.20;99.90
10344;DHT22;5217;43.960;10.954;2023-05-23T09:47:31;21.20;99.90
10344;DHT22;5217;43.960;10.954;2023-05-23T09:49:59;21.20;99.90
10344;DHT22;5217;43.960;10.954;2023-05-23T09:52:34;21.30;99.90
10344;DHT22;5217;43.960;10.954;2023-05-23T09:55:04;21.30;99.90
10344;DHT22;5217;43.960;10.954;2023-05-23T09:57:38;21.30;99.90
10344;DHT22;5217;43.960;10.954;2023-05-23T10:00:09;21.30;99.90
10344;DHT22;5217;43.960;10.954;2023-05-23T10:02:54;21.30;99.90
10344;DHT22;5217;43.960;10.954;2023-05-23T10:05:31;21.40;99.90
10344;DHT22;5217;43.960;10.954;2023-05-23T10:08:02;21.40;99.90
10344;DHT22;5217;43.960;10.954;2023-05-23T10:10:34;21.40;99.90
10344;DHT22;5217;43.960;10.954;2023-05-23T10:13:05;21.40;99.90
10344;DHT22;5217;43.960;10.954;2023-05-23T10:15:38;21.40;99.90
10344;DHT22;5217;43.960;10.954;2023-05-23T10:18:11;21.50;99.90
10344;DHT22;5217;43.960;10.954;2023-05-23T10:20:48;21.50;99.90
10344;DHT22;5217;43.960;10.954;2023-05-23T10:23:17;21.50;99.90
10344;DHT22;5217;43.960;10.954;2023-05-23T10:25:46;21.50;99.90
10344;DHT22;5217;43.960;10.954;2023-05-23T10:28:17;21.50;99.90
10344;DHT22;5217;43.960;10.954;2023-05-23T10:30:45;21.60;99.90
10344;DHT22;5217;43.960;10.954;2023-05-23T10:33:14;21.60;99.90
10344;DHT22;5217;43.960;10.954;2023-05-23T10:35:52;21.60;99.90
10344;DHT22;5217;43.960;10.954;2023-05-23T10:38:30;21.60;99.90
10344;DHT22;5217;43.960;10.954;2023-05-23T10:41:08;21.70;99.90
10344;DHT22;5217;43.960;10.954;2023-05-23T10:43:46;21.70;99.90
10344;DHT22;5217;43.960;10.954;2023-05-23T10:46:19;21.70;99.90
10344;DHT22;5217;43.960;10.954;2023-05-23T10:48:53;21.70;99.90
10344;DHT22;5217;43.960;10.954;2023-05-23T10:51:23;21.70;99.90
10344;DHT22;5217;43.960;10.954;2023-05-23T10:53:53;21.80;99.90
10344;DHT22;5217;43.960;10.954;2023-05-23T10:56:23;21.80;99.90
10344;DHT22;5217;43.960;10.954;2023-05-23T10:58:54;21.90;99.90
10344;DHT22;5217;43.960;10.954;2023-05-23T11:01:22;21.90;99.90
10344;DHT22;5217;43.960;10.954;2023-05-23T11:03:52;21.90;99.90
10344;DHT22;5217;43.960;10.954;2023-05-23T11:06:30;21.90;99.90
10344;DHT22;5217;43.960;10.954;2023-05-23T11:09:03;21.90;99.90
10344;DHT22;5217;43.960;10.954;2023-05-23T11:11:53;21.90;99.90
10344;DHT22;5217;43.960;10.954;2023-05-23T11:14:52;22.00;99.90
10344;DHT22;5217;43.960;10.954;2023-05-23T11:17:31;22.00;99.90
10344;DHT22;5217;43.960;10.954;2023-05-23T11:20:03;22.00;99.90
10344;DHT22;5217;43.960;10.954;2023-05-23T11:22:34;22.00;99.90
10344;DHT22;5217;43.960;10.954;2023-05-23T11:25:06;22.10;99.90
10344;DHT22;5217;43.960;10.954;2023-05-23T11:27:39;22.10;99.90
10344;DHT22;5217;43.960;10.954;2023-05-23T11:30:11;22.10;99.90
10344;DHT22;5217;43.960;10.954;2023-05-23T11:32:41;22.10;99.90
10344;DHT22;5217;43.960;10.954;2023-05-23T11:35:10;22.20;99.90
10344;DHT22;5217;43.960;10.954;2023-05-23T11:37:38;22.20;99.90
10344;DHT22;5217;43.960;10.954;2023-05-23T11:40:25;22.20;99.90
10344;DHT22;5217;43.960;10.954;2023-05-23T11:42:54;22.30;99.90
10344;DHT22;5217;43.960;10.954;2023-05-23T11:45:25;22.30;99.90
10344;DHT22;5217;43.960;10.954;2023-05-23T11:47:54;22.30;99.90
10344;DHT22;5217;43.960;10.954;2023-05-23T11:50:22;22.30;99.90
10344;DHT22;5217;43.960;10.954;2023-05-23T11:52:53;22.40;99.90
10344;DHT22;5217;43.960;10.954;2023-05-23T11:55:22;22.40;99.90
10344;DHT22;5217;43.960;10.954;2023-05-23T11:57:54;22.40;99.90
10344;DHT22;5217;43.960;10.954;2023-05-23T12:00:24;22.40;99.90
10344;DHT22;5217;43.960;10.954;2023-05-23T12:02:52;22.50;99.90
10344;DHT22;5217;43.960;10.954;2023-05-23T12:05:21;22.50;99.90
10344;DHT22;5217;43.960;10.954;2023-05-23T12:07:50;22.50;99.90
10344;DHT22;5217;43.960;10.954;2023-05-23T12:10:19;22.50;99.90
10344;DHT22;5217;43.960;10.954;2023-05-23T12:12:50;22.60;99.90
10344;DHT22;5217;43.960;10.954;2023-05-23T12:15:25;22.60;99.90
10344;DHT22;5217;43.960;10.954;2023-05-23T12:17:54;22.70;99.90
10344;DHT22;5217;43.960;10.954;2023-05-23T12:20:25;22.70;99.90
10344;DHT22;5217;43.960;10.954;2023-05-23T12:22:56;22.70;99.90
10344;DHT22;5217;43.960;10.954;2023-05-23T12:25:24;22.80;99.90
10344;DHT22;5217;43.960;10.954;2023-05-23T12:27:53;22.80;99.90
10344;DHT22;5217;43.960;10.954;2023-05-23T12:30:22;22.80;99.90
10344;DHT22;5217;43.960;10.954;2023-05-23T12:32:52;22.90;99.90
10344;DHT22;5217;43.960;10.954;2023-05-23T12:35:24;22.90;99.90
10344;DHT22;5217;43.960;10.954;2023-05-23T12:37:55;23.00;99.90
10344;DHT22;5217;43.960;10.954;2023-05-23T12:40:24;22.90;99.90
10344;DHT22;5217;43.960;10.954;2023-05-23T12:42:54;23.00;99.90
10344;DHT22;5217;43.960;10.954;2023-05-23T12:45:23;22.90;99.90
10344;DHT22;5217;43.960;10.954;2023-05-23T12:47:53;23.00;99.90
10344;DHT22;5217;43.960;10.954;2023-05-23T12:50:22;23.10;99.90
10344;DHT22;5217;43.960;10.954;2023-05-23T12:52:51;23.10;99.90
10344;DHT22;5217;43.960;10.954;2023-05-23T12:55:19;23.10;99.90
10344;DHT22;5217;43.960;10.954;2023-05-23T12:57:48;23.10;99.90
10344;DHT22;5217;43.960;10.954;2023-05-23T13:00:17;23.20;99.90
10344;DHT22;5217;43.960;10.954;2023-05-23T13:02:46;23.30;99.90
10344;DHT22;5217;43.960;10.954;2023-05-23T13:05:18;23.30;99.90
10344;DHT22;5217;43.960;10.954;2023-05-23T13:07:47;23.30;99.90
10344;DHT22;5217;43.960;10.954;2023-05-23T13:10:16;23.30;99.90
10344;DHT22;5217;43.960;10.954;2023-05-23T13:12:45;23.40;99.90
10344;DHT22;5217;43.960;10.954;2023-05-23T13:15:14;23.40;99.90
10344;DHT22;5217;43.960;10.954;2023-05-23T13:17:43;23.40;99.90
10344;DHT22;5217;43.960;10.954;2023-05-23T13:20:17;23.40;99.90
10344;DHT22;5217;43.960;10.954;2023-05-23T13:22:46;23.50;99.90
10344;DHT22;5217;43.960;10.954;2023-05-23T13:25:15;23.40;99.90
10344;DHT22;5217;43.960;10.954;2023-05-23T13:27:44;23.50;99.90
10344;DHT22;5217;43.960;10.954;2023-05-23T13:30:15;23.50;99.90
10344;DHT22;5217;43.960;10.954;2023-05-23T13:32:44;23.60;99.90
10344;DHT22;5217;43.960;10.954;2023-05-23T13:35:15;23.60;99.90
10344;DHT22;5217;43.960;10.954;2023-05-23T13:37:45;23.60;99.90
10344;DHT22;5217;43.960;10.954;2023-05-23T13:40:17;23.60;99.90
10344;DHT22;5217;43.960;10.954;2023-05-23T13:42:47;23.70;99.90
10344;DHT22;5217;43.960;10.954;2023-05-23T13:45:17;23.70;99.90
10344;DHT22;5217;43.960;10.954;2023-05-23T13:47:46;23.70;99.90
10344;DHT22;5217;43.960;10.954;2023-05-23T13:50:15;23.80;99.90
10344;DHT22;5217;43.960;10.954;2023-05-23T13:52:45;23.80;99.90
10344;DHT22;5217;43.960;10.954;2023-05-23T13:55:15;23.80;99.90
10344;DHT22;5217;43.960;10.954;2023-05-23T13:57:45;23.80;99.90
10344;DHT22;5217;43.960;10.954;2023-05-23T14:00:14;23.80;99.90
10344;DHT22;5217;43.960;10.954;2023-05-23T14:02:43;23.90;99.90
10344;DHT22;5217;43.960;10.954;2023-05-23T14:05:12;23.90;99.90
10344;DHT22;5217;43.960;10.954;2023-05-23T14:07:41;23.90;99.90
10344;DHT22;5217;43.960;10.954;2023-05-23T14:10:15;23.90;99.60
10344;DHT22;5217;43.960;10.954;2023-05-23T14:12:44;23.90;99.60
10344;DHT22;5217;43.960;10.954;2023-05-23T14:15:13;23.90;99.60
10344;DHT22;5217;43.960;10.954;2023-05-23T14:17:41;24.00;99.90
10344;DHT22;5217;43.960;10.954;2023-05-23T14:20:10;24.00;99.50
10344;DHT22;5217;43.960;10.954;2023-05-23T14:22:39;23.90;99.00
10344;DHT22;5217;43.960;10.954;2023-05-23T14:25:08;24.00;98.80
10344;DHT22;5217;43.960;10.954;2023-05-23T14:27:38;24.00;98.20
10344;DHT22;5217;43.960;10.954;2023-05-23T14:30:08;24.00;97.90
10344;DHT22;5217;43.960;10.954;2023-05-23T14:32:37;24.00;97.30
10344;DHT22;5217;43.960;10.954;2023-05-23T14:35:09;24.00;97.20
10344;DHT22;5217;43.960;10.954;2023-05-23T14:37:38;24.00;97.50
10344;DHT22;5217;43.960;10.954;2023-05-23T14:40:08;24.00;97.80
10344;DHT22;5217;43.960;10.954;2023-05-23T14:42:38;24.00;97.60
10344;DHT22;5217;43.960;10.954;2023-05-23T14:45:07;24.00;97.20
10344;DHT22;5217;43.960;10.954;2023-05-23T14:47:37;24.00;97.20
10344;DHT22;5217;43.960;10.954;2023-05-23T14:50:07;24.00;97.40
10344;DHT22;5217;43.960;10.954;2023-05-23T14:52:35;24.00;97.40
10344;DHT22;5217;43.960;10.954;2023-05-23T14:55:05;24.10;97.30
10344;DHT22;5217;43.960;10.954;2023-05-23T14:57:34;24.10;97.30
10344;DHT22;5217;43.960;10.954;2023-05-23T15:00:08;24.10;97.40
10344;DHT22;5217;43.960;10.954;2023-05-23T15:02:37;24.10;96.80
10344;DHT22;5217;43.960;10.954;2023-05-23T15:05:07;24.10;97.30
10344;DHT22;5217;43.960;10.954;2023-05-23T15:07:36;24.20;97.90
10344;DHT22;5217;43.960;10.954;2023-05-23T15:10:06;24.20;98.60
10344;DHT22;5217;43.960;10.954;2023-05-23T15:12:35;24.20;98.60
10344;DHT22;5217;43.960;10.954;2023-05-23T15:15:06;24.20;98.80
10344;DHT22;5217;43.960;10.954;2023-05-23T15:17:34;24.10;98.80
10344;DHT22;5217;43.960;10.954;2023-05-23T15:20:04;24.20;98.90
10344;DHT22;5217;43.960;10.954;2023-05-23T15:22:33;24.20;99.20
10344;DHT22;5217;43.960;10.954;2023-05-23T15:25:07;24.20;99.40
10344;DHT22;5217;43.960;10.954;2023-05-23T15:27:36;24.20;99.50
10344;DHT22;5217;43.960;10.954;2023-05-23T15:30:07;24.20;99.70
10344;DHT22;5217;43.960;10.954;2023-05-23T15:32:36;24.20;99.70
10344;DHT22;5217;43.960;10.954;2023-05-23T15:35:05;24.20;99.80
10344;DHT22;5217;43.960;10.954;2023-05-23T15:37:34;24.20;99.90
10344;DHT22;5217;43.960;10.954;2023-05-23T15:40:03;24.20;99.90
10344;DHT22;5217;43.960;10.954;2023-05-23T15:42:32;24.20;99.90
10344;DHT22;5217;43.960;10.954;2023-05-23T15:45:00;24.20;99.90
10344;DHT22;5217;43.960;10.954;2023-05-23T15:47:30;24.20;99.90